sensor_id;sensor_type;location;lat;lon;timestamp;P1;durP1;ratioP1;P2;durP2;ratioP2
17927;SDS011;9089;58.396;15.544;2023-04-01T00:01:45;3.25;;;1.52;;
17927;SDS011;9089;58.396;15.544;2023-04-01T00:04:11;2.35;;;1.40;;
17927;SDS011;9089;58.396;15.544;2023-04-01T00:06:36;1.95;;;1.50;;
17927;SDS011;9089;58.396;15.544;2023-04-01T00:09:01;1.77;;;1.67;;
17927;SDS011;9089;58.396;15.544;2023-04-01T00:11:27;4.00;;;1.63;;
17927;SDS011;9089;58.396;15.544;2023-04-01T00:13:53;1.50;;;1.40;;
17927;SDS011;9089;58.396;15.544;2023-04-01T00:16:18;1.92;;;1.77;;
17927;SDS011;9089;58.396;15.544;2023-04-01T00:18:45;2.10;;;1.70;;
17927;SDS011;9089;58.396;15.544;2023-04-01T00:21:12;1.55;;;1.45;;
17927;SDS011;9089;58.396;15.544;2023-04-01T00:23:37;1.60;;;1.50;;
17927;SDS011;9089;58.396;15.544;2023-04-01T00:26:03;2.33;;;1.20;;
17927;SDS011;9089;58.396;15.544;2023-04-01T00:28:29;1.52;;;1.42;;
17927;SDS011;9089;58.396;15.544;2023-04-01T00:30:54;1.85;;;1.75;;
17927;SDS011;9089;58.396;15.544;2023-04-01T00:33:20;1.98;;;1.80;;
17927;SDS011;9089;58.396;15.544;2023-04-01T00:35:47;2.17;;;1.52;;
17927;SDS011;9089;58.396;15.544;2023-04-01T00:38:12;1.90;;;1.52;;
17927;SDS011;9089;58.396;15.544;2023-04-01T00:40:39;3.17;;;1.65;;
17927;SDS011;9089;58.396;15.544;2023-04-01T00:43:08;1.58;;;1.45;;
17927;SDS011;9089;58.396;15.544;2023-04-01T00:45:35;5.47;;;1.90;;
17927;SDS011;9089;58.396;15.544;2023-04-01T00:48:03;4.00;;;1.60;;
17927;SDS011;9089;58.396;15.544;2023-04-01T00:50:30;1.48;;;1.25;;
17927;SDS011;9089;58.396;15.544;2023-04-01T00:52:57;1.50;;;1.40;;
17927;SDS011;9089;58.396;15.544;2023-04-01T00:55:23;3.10;;;1.85;;
17927;SDS011;9089;58.396;15.544;2023-04-01T00:57:49;3.35;;;2.00;;
17927;SDS011;9089;58.396;15.544;2023-04-01T01:00:16;3.22;;;1.80;;
17927;SDS011;9089;58.396;15.544;2023-04-01T01:02:42;2.97;;;1.50;;
17927;SDS011;9089;58.396;15.544;2023-04-01T01:05:10;1.75;;;1.63;;
17927;SDS011;9089;58.396;15.544;2023-04-01T01:07:38;1.88;;;1.63;;
17927;SDS011;9089;58.396;15.544;2023-04-01T01:10:26;1.95;;;1.70;;
17927;SDS011;9089;58.396;15.544;2023-04-01T01:12:56;1.60;;;1.50;;
17927;SDS011;9089;58.396;15.544;2023-04-01T01:15:26;3.25;;;1.40;;
17927;SDS011;9089;58.396;15.544;2023-04-01T01:17:54;1.50;;;1.40;;
17927;SDS011;9089;58.396;15.544;2023-04-01T01:20:31;1.60;;;1.50;;
17927;SDS011;9089;58.396;15.544;2023-04-01T01:23:03;2.60;;;1.55;;
17927;SDS011;9089;58.396;15.544;2023-04-01T01:25:36;2.17;;;1.45;;
17927;SDS011;9089;58.396;15.544;2023-04-01T01:28:11;1.40;;;1.30;;
17927;SDS011;9089;58.396;15.544;2023-04-01T01:30:43;1.80;;;1.48;;
17927;SDS011;9089;58.396;15.544;2023-04-01T01:33:29;1.50;;;1.40;;
17927;SDS011;9089;58.396;15.544;2023-04-01T01:35:59;1.70;;;1.60;;
17927;SDS011;9089;58.396;15.544;2023-04-01T01:38:27;1.40;;;1.30;;
17927;SDS011;9089;58.396;15.544;2023-04-01T01:40:58;1.52;;;1.42;;
17927;SDS011;9089;58.396;15.544;2023-04-01T01:43:25;1.85;;;1.45;;
17927;SDS011;9089;58.396;15.544;2023-04-01T01:45:52;1.95;;;1.67;;
17927;SDS011;9089;58.396;15.544;2023-04-01T01:48:19;1.70;;;1.38;;
17927;SDS011;9089;58.396;15.544;2023-04-01T01:50:45;1.48;;;1.30;;
17927;SDS011;9089;58.396;15.544;2023-04-01T01:53:13;1.42;;;1.20;;
17927;SDS011;9089;58.396;15.544;2023-04-01T01:55:39;2.28;;;1.30;;
17927;SDS011;9089;58.396;15.544;2023-04-01T01:58:08;2.03;;;1.55;;
17927;SDS011;9089;58.396;15.544;2023-04-01T02:00:37;1.60;;;1.50;;
17927;SDS011;9089;58.396;15.544;2023-04-01T02:03:03;1.50;;;1.40;;
17927;SDS011;9089;58.396;15.544;2023-04-01T02:05:30;2.60;;;1.38;;
17927;SDS011;9089;58.396;15.544;2023-04-01T02:08:04;2.70;;;1.40;;
17927;SDS011;9089;58.396;15.544;2023-04-01T02:10:33;1.42;;;1.33;;
17927;SDS011;9089;58.396;15.544;2023-04-01T02:13:00;1.83;;;1.60;;
17927;SDS011;9089;58.396;15.544;2023-04-01T02:15:26;1.50;;;1.40;;
17927;SDS011;9089;58.396;15.544;2023-04-01T02:17:55;2.75;;;1.48;;
17927;SDS011;9089;58.396;15.544;2023-04-01T02:20:22;1.90;;;1.20;;
17927;SDS011;9089;58.396;15.544;2023-04-01T02:22:48;2.65;;;1.55;;
17927;SDS011;9089;58.396;15.544;2023-04-01T02:25:15;2.50;;;1.45;;
17927;SDS011;9089;58.396;15.544;2023-04-01T02:27:44;1.73;;;1.60;;
17927;SDS011;9089;58.396;15.544;2023-04-01T02:30:10;2.22;;;1.50;;
17927;SDS011;9089;58.396;15.544;2023-04-01T02:32:36;1.30;;;1.20;;
17927;SDS011;9089;58.396;15.544;2023-04-01T02:35:03;1.52;;;1.42;;
17927;SDS011;9089;58.396;15.544;2023-04-01T02:37:31;1.30;;;1.20;;
17927;SDS011;9089;58.396;15.544;2023-04-01T02:39:58;1.75;;;1.40;;
17927;SDS011;9089;58.396;15.544;2023-04-01T02:42:24;1.55;;;1.45;;
17927;SDS011;9089;58.396;15.544;2023-04-01T02:44:50;1.70;;;1.42;;
17927;SDS011;9089;58.396;15.544;2023-04-01T02:47:16;1.63;;;1.52;;
17927;SDS011;9089;58.396;15.544;2023-04-01T02:49:41;1.35;;;1.25;;
17927;SDS011;9089;58.396;15.544;2023-04-01T02:52:07;1.60;;;1.50;;
17927;SDS011;9089;58.396;15.544;2023-04-01T02:54:32;2.25;;;1.60;;
17927;SDS011;9089;58.396;15.544;2023-04-01T02:56:58;1.95;;;1.60;;
17927;SDS011;9089;58.396;15.544;2023-04-01T02:59:23;2.25;;;1.30;;
17927;SDS011;9089;58.396;15.544;2023-04-01T03:01:50;1.38;;;1.27;;
17927;SDS011;9089;58.396;15.544;2023-04-01T03:04:15;1.42;;;1.33;;
17927;SDS011;9089;58.396;15.544;2023-04-01T03:06:41;1.40;;;1.30;;
17927;SDS011;9089;58.396;15.544;2023-04-01T03:09:06;1.00;;;1.00;;
17927;SDS011;9089;58.396;15.544;2023-04-01T03:11:32;1.85;;;1.50;;
17927;SDS011;9089;58.396;15.544;2023-04-01T03:13:57;1.33;;;1.10;;
17927;SDS011;9089;58.396;15.544;2023-04-01T03:16:22;1.38;;;1.30;;
17927;SDS011;9089;58.396;15.544;2023-04-01T03:19:08;2.88;;;1.40;;
17927;SDS011;9089;58.396;15.544;2023-04-01T03:21:33;1.25;;;1.17;;
17927;SDS011;9089;58.396;15.544;2023-04-01T03:24:00;1.58;;;1.40;;
17927;SDS011;9089;58.396;15.544;2023-04-01T03:26:27;1.63;;;1.52;;
17927;SDS011;9089;58.396;15.544;2023-04-01T03:28:53;2.25;;;1.52;;
17927;SDS011;9089;58.396;15.544;2023-04-01T03:31:18;1.40;;;1.30;;
17927;SDS011;9089;58.396;15.544;2023-04-01T03:33:50;0.98;;;0.98;;
17927;SDS011;9089;58.396;15.544;2023-04-01T03:36:17;1.15;;;1.10;;
17927;SDS011;9089;58.396;15.544;2023-04-01T03:38:43;1.60;;;1.35;;
17927;SDS011;9089;58.396;15.544;2023-04-01T03:41:12;2.00;;;1.52;;
17927;SDS011;9089;58.396;15.544;2023-04-01T03:43:37;2.70;;;2.05;;
17927;SDS011;9089;58.396;15.544;2023-04-01T03:46:03;1.40;;;1.30;;
17927;SDS011;9089;58.396;15.544;2023-04-01T03:48:29;1.77;;;1.38;;
17927;SDS011;9089;58.396;15.544;2023-04-01T03:50:54;2.35;;;1.40;;
17927;SDS011;9089;58.396;15.544;2023-04-01T03:53:22;1.75;;;1.65;;
17927;SDS011;9089;58.396;15.544;2023-04-01T03:55:48;2.80;;;1.27;;
17927;SDS011;9089;58.396;15.544;2023-04-01T03:58:14;1.65;;;1.10;;
17927;SDS011;9089;58.396;15.544;2023-04-01T04:00:40;1.40;;;1.30;;
17927;SDS011;9089;58.396;15.544;2023-04-01T04:03:06;1.38;;;1.27;;
17927;SDS011;9089;58.396;15.544;2023-04-01T04:05:34;1.95;;;1.27;;
17927;SDS011;9089;58.396;15.544;2023-04-01T04:07:59;1.25;;;1.23;;
17927;SDS011;9089;58.396;15.544;2023-04-01T04:10:26;2.83;;;1.20;;
17927;SDS011;9089;58.396;15.544;2023-04-01T04:12:54;1.50;;;1.40;;
17927;SDS011;9089;58.396;15.544;2023-04-01T04:15:21;1.40;;;1.30;;
17927;SDS011;9089;58.396;15.544;2023-04-01T04:17:47;1.45;;;1.35;;
17927;SDS011;9089;58.396;15.544;2023-04-01T04:20:13;1.30;;;1.20;;
17927;SDS011;9089;58.396;15.544;2023-04-01T04:22:39;1.50;;;1.30;;
17927;SDS011;9089;58.396;15.544;2023-04-01T04:25:06;1.45;;;1.35;;
17927;SDS011;9089;58.396;15.544;2023-04-01T04:27:34;1.27;;;1.00;;
17927;SDS011;9089;58.396;15.544;2023-04-01T04:30:11;1.63;;;1.17;;
17927;SDS011;9089;58.396;15.544;2023-04-01T04:32:37;1.45;;;1.35;;
17927;SDS011;9089;58.396;15.544;2023-04-01T04:35:04;1.60;;;1.45;;
17927;SDS011;9089;58.396;15.544;2023-04-01T04:37:31;1.33;;;1.17;;
17927;SDS011;9089;58.396;15.544;2023-04-01T04:39:57;1.20;;;1.10;;
17927;SDS011;9089;58.396;15.544;2023-04-01T04:42:22;2.50;;;1.15;;
17927;SDS011;9089;58.396;15.544;2023-04-01T04:44:53;1.50;;;1.40;;
17927;SDS011;9089;58.396;15.544;2023-04-01T04:47:19;1.73;;;1.63;;
17927;SDS011;9089;58.396;15.544;2023-04-01T04:49:44;1.50;;;1.38;;
17927;SDS011;9089;58.396;15.544;2023-04-01T04:52:10;1.38;;;1.27;;
17927;SDS011;9089;58.396;15.544;2023-04-01T04:54:36;1.20;;;1.10;;
17927;SDS011;9089;58.396;15.544;2023-04-01T04:57:02;1.25;;;1.13;;
17927;SDS011;9089;58.396;15.544;2023-04-01T04:59:33;1.80;;;1.20;;
17927;SDS011;9089;58.396;15.544;2023-04-01T05:02:13;1.45;;;1.20;;
17927;SDS011;9089;58.396;15.544;2023-04-01T05:04:38;1.40;;;1.30;;
17927;SDS011;9089;58.396;15.544;2023-04-01T05:07:07;1.35;;;1.25;;
17927;SDS011;9089;58.396;15.544;2023-04-01T05:09:33;1.50;;;1.10;;
17927;SDS011;9089;58.396;15.544;2023-04-01T05:11:59;1.20;;;1.10;;
17927;SDS011;9089;58.396;15.544;2023-04-01T05:14:28;1.15;;;1.05;;
17927;SDS011;9089;58.396;15.544;2023-04-01T05:17:01;2.60;;;1.30;;
17927;SDS011;9089;58.396;15.544;2023-04-01T05:19:28;1.73;;;1.40;;
17927;SDS011;9089;58.396;15.544;2023-04-01T05:21:54;1.30;;;1.20;;
17927;SDS011;9089;58.396;15.544;2023-04-01T05:24:21;1.20;;;1.05;;
17927;SDS011;9089;58.396;15.544;2023-04-01T05:26:47;2.45;;;1.40;;
17927;SDS011;9089;58.396;15.544;2023-04-01T05:29:12;1.20;;;1.20;;
17927;SDS011;9089;58.396;15.544;2023-04-01T05:31:38;1.63;;;1.20;;
17927;SDS011;9089;58.396;15.544;2023-04-01T05:34:04;1.10;;;1.00;;
17927;SDS011;9089;58.396;15.544;2023-04-01T05:36:31;1.90;;;0.98;;
17927;SDS011;9089;58.396;15.544;2023-04-01T05:38:57;1.23;;;1.10;;
17927;SDS011;9089;58.396;15.544;2023-04-01T05:41:25;1.40;;;1.30;;
17927;SDS011;9089;58.396;15.544;2023-04-01T05:43:50;1.02;;;1.00;;
17927;SDS011;9089;58.396;15.544;2023-04-01T05:46:51;1.10;;;1.00;;
17927;SDS011;9089;58.396;15.544;2023-04-01T05:49:20;2.25;;;1.25;;
17927;SDS011;9089;58.396;15.544;2023-04-01T05:51:48;1.17;;;1.08;;
17927;SDS011;9089;58.396;15.544;2023-04-01T05:54:13;1.42;;;1.33;;
17927;SDS011;9089;58.396;15.544;2023-04-01T05:56:39;3.20;;;1.35;;
17927;SDS011;9089;58.396;15.544;2023-04-01T05:59:04;2.78;;;1.10;;
17927;SDS011;9089;58.396;15.544;2023-04-01T06:01:30;2.33;;;1.13;;
17927;SDS011;9089;58.396;15.544;2023-04-01T06:03:56;1.30;;;1.20;;
17927;SDS011;9089;58.396;15.544;2023-04-01T06:06:23;1.30;;;1.20;;
17927;SDS011;9089;58.396;15.544;2023-04-01T06:08:50;1.75;;;1.20;;
17927;SDS011;9089;58.396;15.544;2023-04-01T06:11:19;1.35;;;1.25;;
17927;SDS011;9089;58.396;15.544;2023-04-01T06:13:54;2.10;;;1.10;;
17927;SDS011;9089;58.396;15.544;2023-04-01T06:16:29;1.67;;;1.40;;
17927;SDS011;9089;58.396;15.544;2023-04-01T06:18:58;0.90;;;0.90;;
17927;SDS011;9089;58.396;15.544;2023-04-01T06:24:10;1.30;;;1.20;;
17927;SDS011;9089;58.396;15.544;2023-04-01T06:26:39;2.35;;;1.00;;
17927;SDS011;9089;58.396;15.544;2023-04-01T06:29:19;1.50;;;1.30;;
17927;SDS011;9089;58.396;15.544;2023-04-01T06:31:52;1.50;;;1.38;;
17927;SDS011;9089;58.396;15.544;2023-04-01T06:34:27;2.80;;;1.48;;
17927;SDS011;9089;58.396;15.544;2023-04-01T06:37:05;1.08;;;1.00;;
17927;SDS011;9089;58.396;15.544;2023-04-01T06:39:41;1.60;;;1.50;;
17927;SDS011;9089;58.396;15.544;2023-04-01T06:42:19;1.25;;;1.17;;
17927;SDS011;9089;58.396;15.544;2023-04-01T06:44:52;1.30;;;1.20;;
17927;SDS011;9089;58.396;15.544;2023-04-01T06:47:42;1.23;;;1.13;;
17927;SDS011;9089;58.396;15.544;2023-04-01T06:50:40;1.85;;;1.23;;
17927;SDS011;9089;58.396;15.544;2023-04-01T06:53:30;1.77;;;1.23;;
17927;SDS011;9089;58.396;15.544;2023-04-01T06:56:18;1.40;;;1.30;;
17927;SDS011;9089;58.396;15.544;2023-04-01T06:58:57;1.45;;;1.27;;
17927;SDS011;9089;58.396;15.544;2023-04-01T07:01:25;2.80;;;1.40;;
17927;SDS011;9089;58.396;15.544;2023-04-01T07:03:54;2.50;;;1.42;;
17927;SDS011;9089;58.396;15.544;2023-04-01T07:06:25;1.15;;;1.05;;
17927;SDS011;9089;58.396;15.544;2023-04-01T07:08:54;1.02;;;1.00;;
17927;SDS011;9089;58.396;15.544;2023-04-01T07:11:24;1.88;;;1.13;;
17927;SDS011;9089;58.396;15.544;2023-04-01T07:14:11;2.05;;;1.30;;
17927;SDS011;9089;58.396;15.544;2023-04-01T07:16:39;1.95;;;1.33;;
17927;SDS011;9089;58.396;15.544;2023-04-01T07:19:08;1.90;;;1.40;;
17927;SDS011;9089;58.396;15.544;2023-04-01T07:21:49;2.08;;;1.30;;
17927;SDS011;9089;58.396;15.544;2023-04-01T07:24:26;1.23;;;1.10;;
17927;SDS011;9089;58.396;15.544;2023-04-01T07:27:05;1.45;;;1.20;;
17927;SDS011;9089;58.396;15.544;2023-04-01T07:29:32;0.90;;;0.90;;
17927;SDS011;9089;58.396;15.544;2023-04-01T07:32:04;5.25;;;1.17;;
17927;SDS011;9089;58.396;15.544;2023-04-01T07:34:34;1.45;;;1.20;;
17927;SDS011;9089;58.396;15.544;2023-04-01T07:37:08;1.55;;;1.17;;
17927;SDS011;9089;58.396;15.544;2023-04-01T07:39:37;1.42;;;1.33;;
17927;SDS011;9089;58.396;15.544;2023-04-01T07:42:21;2.30;;;1.40;;
17927;SDS011;9089;58.396;15.544;2023-04-01T07:44:52;4.13;;;1.30;;
17927;SDS011;9089;58.396;15.544;2023-04-01T07:50:02;1.20;;;1.10;;
17927;SDS011;9089;58.396;15.544;2023-04-01T07:52:35;1.50;;;1.40;;
17927;SDS011;9089;58.396;15.544;2023-04-01T07:55:09;1.63;;;1.38;;
17927;SDS011;9089;58.396;15.544;2023-04-01T07:57:41;1.17;;;1.10;;
17927;SDS011;9089;58.396;15.544;2023-04-01T08:00:09;1.20;;;1.10;;
17927;SDS011;9089;58.396;15.544;2023-04-01T08:02:54;1.50;;;1.30;;
17927;SDS011;9089;58.396;15.544;2023-04-01T08:05:25;2.55;;;1.35;;
17927;SDS011;9089;58.396;15.544;2023-04-01T08:07:54;2.58;;;1.30;;
17927;SDS011;9089;58.396;15.544;2023-04-01T08:10:43;1.20;;;1.10;;
17927;SDS011;9089;58.396;15.544;2023-04-01T08:13:39;1.35;;;0.90;;
17927;SDS011;9089;58.396;15.544;2023-04-01T08:16:28;1.58;;;1.13;;
17927;SDS011;9089;58.396;15.544;2023-04-01T08:19:02;1.73;;;1.10;;
17927;SDS011;9089;58.396;15.544;2023-04-01T08:21:31;1.75;;;1.00;;
17927;SDS011;9089;58.396;15.544;2023-04-01T08:23:58;2.92;;;1.15;;
17927;SDS011;9089;58.396;15.544;2023-04-01T08:26:27;2.53;;;1.20;;
17927;SDS011;9089;58.396;15.544;2023-04-01T08:28:57;1.10;;;1.00;;
17927;SDS011;9089;58.396;15.544;2023-04-01T08:31:25;2.28;;;1.10;;
17927;SDS011;9089;58.396;15.544;2023-04-01T08:33:54;1.67;;;1.15;;
17927;SDS011;9089;58.396;15.544;2023-04-01T08:36:21;2.08;;;1.40;;
17927;SDS011;9089;58.396;15.544;2023-04-01T08:38:57;1.52;;;1.30;;
17927;SDS011;9089;58.396;15.544;2023-04-01T08:41:32;3.72;;;1.30;;
17927;SDS011;9089;58.396;15.544;2023-04-01T08:49:59;1.20;;;1.10;;
17927;SDS011;9089;58.396;15.544;2023-04-01T08:52:52;1.20;;;1.10;;
17927;SDS011;9089;58.396;15.544;2023-04-01T08:55:28;2.75;;;1.30;;
17927;SDS011;9089;58.396;15.544;2023-04-01T08:58:11;2.00;;;1.30;;
17927;SDS011;9089;58.396;15.544;2023-04-01T09:01:03;4.13;;;1.25;;
17927;SDS011;9089;58.396;15.544;2023-04-01T09:03:41;1.67;;;1.38;;
17927;SDS011;9089;58.396;15.544;2023-04-01T09:06:19;2.72;;;1.52;;
17927;SDS011;9089;58.396;15.544;2023-04-01T09:08:52;1.33;;;1.17;;
17927;SDS011;9089;58.396;15.544;2023-04-01T09:11:23;2.40;;;1.63;;
17927;SDS011;9089;58.396;15.544;2023-04-01T09:14:17;1.50;;;1.40;;
17927;SDS011;9089;58.396;15.544;2023-04-01T09:16:58;1.20;;;1.10;;
17927;SDS011;9089;58.396;15.544;2023-04-01T09:19:28;1.38;;;1.10;;
17927;SDS011;9089;58.396;15.544;2023-04-01T09:22:21;4.97;;;1.10;;
17927;SDS011;9089;58.396;15.544;2023-04-01T09:25:01;2.42;;;1.30;;
17927;SDS011;9089;58.396;15.544;2023-04-01T09:27:31;1.42;;;1.30;;
17927;SDS011;9089;58.396;15.544;2023-04-01T09:30:13;4.80;;;1.33;;
17927;SDS011;9089;58.396;15.544;2023-04-01T09:33:12;2.33;;;1.35;;
17927;SDS011;9089;58.396;15.544;2023-04-01T09:35:45;1.42;;;1.33;;
17927;SDS011;9089;58.396;15.544;2023-04-01T09:38:21;1.40;;;1.13;;
17927;SDS011;9089;58.396;15.544;2023-04-01T09:40:48;2.70;;;1.13;;
17927;SDS011;9089;58.396;15.544;2023-04-01T09:43:33;1.30;;;1.20;;
17927;SDS011;9089;58.396;15.544;2023-04-01T09:46:10;1.10;;;1.00;;
17927;SDS011;9089;58.396;15.544;2023-04-01T09:48:40;1.70;;;1.40;;
17927;SDS011;9089;58.396;15.544;2023-04-01T09:51:12;1.50;;;1.40;;
17927;SDS011;9089;58.396;15.544;2023-04-01T09:53:46;1.52;;;1.25;;
17927;SDS011;9089;58.396;15.544;2023-04-01T09:59:20;3.10;;;1.67;;
17927;SDS011;9089;58.396;15.544;2023-04-01T10:07:50;1.83;;;1.10;;
17927;SDS011;9089;58.396;15.544;2023-04-01T10:10:30;1.27;;;1.17;;
17927;SDS011;9089;58.396;15.544;2023-04-01T10:13:09;1.65;;;1.08;;
17927;SDS011;9089;58.396;15.544;2023-04-01T10:15:46;1.10;;;1.00;;
17927;SDS011;9089;58.396;15.544;2023-04-01T10:18:29;1.10;;;1.05;;
17927;SDS011;9089;58.396;15.544;2023-04-01T10:21:06;1.30;;;1.20;;
17927;SDS011;9089;58.396;15.544;2023-04-01T10:40:53;3.63;;;1.33;;
17927;SDS011;9089;58.396;15.544;2023-04-01T10:49:20;4.00;;;0.98;;
17927;SDS011;9089;58.396;15.544;2023-04-01T10:54:59;1.20;;;1.10;;
17927;SDS011;9089;58.396;15.544;2023-04-01T10:57:55;1.65;;;0.90;;
17927;SDS011;9089;58.396;15.544;2023-04-01T11:01:05;1.10;;;1.05;;
17927;SDS011;9089;58.396;15.544;2023-04-01T11:04:33;1.63;;;0.90;;
17927;SDS011;9089;58.396;15.544;2023-04-01T11:07:40;1.55;;;1.10;;
17927;SDS011;9089;58.396;15.544;2023-04-01T11:13:01;1.20;;;1.00;;
17927;SDS011;9089;58.396;15.544;2023-04-01T11:24:08;0.90;;;0.90;;
17927;SDS011;9089;58.396;15.544;2023-04-01T11:26:50;1.42;;;0.90;;
17927;SDS011;9089;58.396;15.544;2023-04-01T11:29:38;1.20;;;1.00;;
17927;SDS011;9089;58.396;15.544;2023-04-01T11:32:24;1.00;;;0.90;;
17927;SDS011;9089;58.396;15.544;2023-04-01T11:37:37;1.23;;;1.00;;
17927;SDS011;9089;58.396;15.544;2023-04-01T11:40:25;1.63;;;0.88;;
17927;SDS011;9089;58.396;15.544;2023-04-01T11:43:14;2.13;;;0.80;;
17927;SDS011;9089;58.396;15.544;2023-04-01T11:46:02;1.25;;;1.00;;
17927;SDS011;9089;58.396;15.544;2023-04-01T11:48:36;2.55;;;1.00;;
17927;SDS011;9089;58.396;15.544;2023-04-01T11:51:07;1.02;;;0.90;;
17927;SDS011;9089;58.396;15.544;2023-04-01T11:53:41;2.22;;;0.90;;
17927;SDS011;9089;58.396;15.544;2023-04-01T11:56:13;0.90;;;0.90;;
17927;SDS011;9089;58.396;15.544;2023-04-01T12:01:38;1.10;;;1.00;;
17927;SDS011;9089;58.396;15.544;2023-04-01T12:04:27;1.00;;;0.90;;
17927;SDS011;9089;58.396;15.544;2023-04-01T12:07:00;2.78;;;0.95;;
17927;SDS011;9089;58.396;15.544;2023-04-01T12:09:30;2.22;;;1.40;;
17927;SDS011;9089;58.396;15.544;2023-04-01T12:12:02;0.77;;;0.70;;
17927;SDS011;9089;58.396;15.544;2023-04-01T12:14:30;1.02;;;1.02;;
17927;SDS011;9089;58.396;15.544;2023-04-01T12:17:01;3.58;;;1.10;;
17927;SDS011;9089;58.396;15.544;2023-04-01T12:19:32;2.47;;;1.25;;
17927;SDS011;9089;58.396;15.544;2023-04-01T12:22:06;0.90;;;0.90;;
17927;SDS011;9089;58.396;15.544;2023-04-01T12:24:36;1.88;;;1.00;;
17927;SDS011;9089;58.396;15.544;2023-04-01T12:29:49;1.20;;;1.00;;
17927;SDS011;9089;58.396;15.544;2023-04-01T12:32:20;2.00;;;1.08;;
17927;SDS011;9089;58.396;15.544;2023-04-01T12:34:58;1.98;;;0.70;;
17927;SDS011;9089;58.396;15.544;2023-04-01T12:37:29;1.13;;;1.00;;
17927;SDS011;9089;58.396;15.544;2023-04-01T12:40:09;0.80;;;0.80;;
17927;SDS011;9089;58.396;15.544;2023-04-01T12:42:44;5.47;;;1.08;;
17927;SDS011;9089;58.396;15.544;2023-04-01T12:45:17;0.80;;;0.60;;
17927;SDS011;9089;58.396;15.544;2023-04-01T12:47:58;1.30;;;1.08;;
17927;SDS011;9089;58.396;15.544;2023-04-01T12:50:31;0.70;;;0.70;;
17927;SDS011;9089;58.396;15.544;2023-04-01T12:53:12;1.75;;;0.77;;
17927;SDS011;9089;58.396;15.544;2023-04-01T12:55:43;1.25;;;0.88;;
17927;SDS011;9089;58.396;15.544;2023-04-01T13:01:00;1.70;;;0.80;;
17927;SDS011;9089;58.396;15.544;2023-04-01T13:03:38;0.82;;;0.80;;
17927;SDS011;9089;58.396;15.544;2023-04-01T13:09:01;0.90;;;0.90;;
17927;SDS011;9089;58.396;15.544;2023-04-01T13:11:33;1.00;;;1.00;;
17927;SDS011;9089;58.396;15.544;2023-04-01T13:14:13;2.00;;;0.80;;
17927;SDS011;9089;58.396;15.544;2023-04-01T13:17:03;1.65;;;0.80;;
17927;SDS011;9089;58.396;15.544;2023-04-01T13:19:34;1.27;;;0.98;;
17927;SDS011;9089;58.396;15.544;2023-04-01T13:22:03;0.70;;;0.70;;
17927;SDS011;9089;58.396;15.544;2023-04-01T13:24:37;1.83;;;0.60;;
17927;SDS011;9089;58.396;15.544;2023-04-01T13:27:05;0.90;;;0.80;;
17927;SDS011;9089;58.396;15.544;2023-04-01T13:29:32;1.25;;;1.15;;
17927;SDS011;9089;58.396;15.544;2023-04-01T13:32:01;1.02;;;0.95;;
17927;SDS011;9089;58.396;15.544;2023-04-01T13:34:34;0.88;;;0.77;;
17927;SDS011;9089;58.396;15.544;2023-04-01T13:37:04;0.93;;;0.90;;
17927;SDS011;9089;58.396;15.544;2023-04-01T13:39:36;1.30;;;0.90;;
17927;SDS011;9089;58.396;15.544;2023-04-01T13:42:08;0.85;;;0.80;;
17927;SDS011;9089;58.396;15.544;2023-04-01T13:44:37;1.10;;;0.90;;
17927;SDS011;9089;58.396;15.544;2023-04-01T13:47:07;2.55;;;0.90;;
17927;SDS011;9089;58.396;15.544;2023-04-01T13:49:54;0.80;;;0.80;;
17927;SDS011;9089;58.396;15.544;2023-04-01T13:52:27;0.80;;;0.80;;
17927;SDS011;9089;58.396;15.544;2023-04-01T13:55:05;2.42;;;0.95;;
17927;SDS011;9089;58.396;15.544;2023-04-01T13:57:42;1.38;;;0.80;;
17927;SDS011;9089;58.396;15.544;2023-04-01T14:00:19;1.00;;;0.80;;
17927;SDS011;9089;58.396;15.544;2023-04-01T14:02:55;0.82;;;0.70;;
17927;SDS011;9089;58.396;15.544;2023-04-01T14:05:32;1.42;;;0.60;;
17927;SDS011;9089;58.396;15.544;2023-04-01T14:08:01;0.70;;;0.70;;
17927;SDS011;9089;58.396;15.544;2023-04-01T14:10:31;1.65;;;0.60;;
17927;SDS011;9089;58.396;15.544;2023-04-01T14:13:01;0.85;;;0.82;;
17927;SDS011;9089;58.396;15.544;2023-04-01T14:15:42;1.15;;;0.80;;
17927;SDS011;9089;58.396;15.544;2023-04-01T14:18:16;1.10;;;0.65;;
17927;SDS011;9089;58.396;15.544;2023-04-01T14:20:46;0.63;;;0.63;;
17927;SDS011;9089;58.396;15.544;2023-04-01T14:23:30;0.85;;;0.60;;
17927;SDS011;9089;58.396;15.544;2023-04-01T14:26:02;1.33;;;0.80;;
17927;SDS011;9089;58.396;15.544;2023-04-01T14:28:31;1.30;;;0.77;;
17927;SDS011;9089;58.396;15.544;2023-04-01T14:31:00;2.00;;;0.73;;
17927;SDS011;9089;58.396;15.544;2023-04-01T14:33:31;0.77;;;0.77;;
17927;SDS011;9089;58.396;15.544;2023-04-01T14:36:05;2.05;;;0.63;;
17927;SDS011;9089;58.396;15.544;2023-04-01T14:38:47;1.67;;;0.80;;
17927;SDS011;9089;58.396;15.544;2023-04-01T14:41:17;0.60;;;0.60;;
17927;SDS011;9089;58.396;15.544;2023-04-01T14:43:47;0.70;;;0.70;;
17927;SDS011;9089;58.396;15.544;2023-04-01T14:46:34;0.65;;;0.60;;
17927;SDS011;9089;58.396;15.544;2023-04-01T14:49:14;0.70;;;0.70;;
17927;SDS011;9089;58.396;15.544;2023-04-01T14:51:42;0.82;;;0.70;;
17927;SDS011;9089;58.396;15.544;2023-04-01T14:54:09;0.65;;;0.65;;
17927;SDS011;9089;58.396;15.544;2023-04-01T14:56:38;0.60;;;0.60;;
17927;SDS011;9089;58.396;15.544;2023-04-01T14:59:04;3.55;;;0.80;;
17927;SDS011;9089;58.396;15.544;2023-04-01T15:01:35;0.57;;;0.57;;
17927;SDS011;9089;58.396;15.544;2023-04-01T15:04:10;1.35;;;0.68;;
17927;SDS011;9089;58.396;15.544;2023-04-01T15:06:45;1.15;;;0.75;;
17927;SDS011;9089;58.396;15.544;2023-04-01T15:09:15;1.50;;;0.60;;
17927;SDS011;9089;58.396;15.544;2023-04-01T15:11:51;0.63;;;0.63;;
17927;SDS011;9089;58.396;15.544;2023-04-01T15:14:23;2.00;;;1.00;;
17927;SDS011;9089;58.396;15.544;2023-04-01T15:16:55;0.60;;;0.60;;
17927;SDS011;9089;58.396;15.544;2023-04-01T15:19:23;1.08;;;0.80;;
17927;SDS011;9089;58.396;15.544;2023-04-01T15:22:01;0.95;;;0.70;;
17927;SDS011;9089;58.396;15.544;2023-04-01T15:24:35;1.30;;;0.73;;
17927;SDS011;9089;58.396;15.544;2023-04-01T15:27:09;0.68;;;0.63;;
17927;SDS011;9089;58.396;15.544;2023-04-01T15:29:43;3.65;;;0.80;;
17927;SDS011;9089;58.396;15.544;2023-04-01T15:32:16;0.65;;;0.65;;
17927;SDS011;9089;58.396;15.544;2023-04-01T15:34:43;1.35;;;0.80;;
17927;SDS011;9089;58.396;15.544;2023-04-01T15:37:12;1.35;;;0.60;;
17927;SDS011;9089;58.396;15.544;2023-04-01T15:39:43;0.70;;;0.70;;
17927;SDS011;9089;58.396;15.544;2023-04-01T15:42:18;0.95;;;0.70;;
17927;SDS011;9089;58.396;15.544;2023-04-01T15:44:47;1.55;;;0.70;;
17927;SDS011;9089;58.396;15.544;2023-04-01T15:47:30;0.80;;;0.60;;
17927;SDS011;9089;58.396;15.544;2023-04-01T15:49:57;1.15;;;0.68;;
17927;SDS011;9089;58.396;15.544;2023-04-01T15:52:35;2.15;;;0.70;;
17927;SDS011;9089;58.396;15.544;2023-04-01T15:55:09;0.75;;;0.75;;
17927;SDS011;9089;58.396;15.544;2023-04-01T15:57:39;0.88;;;0.73;;
17927;SDS011;9089;58.396;15.544;2023-04-01T16:00:09;2.53;;;0.70;;
17927;SDS011;9089;58.396;15.544;2023-04-01T16:02:43;2.42;;;0.80;;
17927;SDS011;9089;58.396;15.544;2023-04-01T16:05:10;1.20;;;0.95;;
17927;SDS011;9089;58.396;15.544;2023-04-01T16:07:51;1.13;;;0.90;;
17927;SDS011;9089;58.396;15.544;2023-04-01T16:10:23;3.08;;;0.70;;
17927;SDS011;9089;58.396;15.544;2023-04-01T16:12:58;2.08;;;0.90;;
17927;SDS011;9089;58.396;15.544;2023-04-01T16:15:28;3.13;;;0.95;;
17927;SDS011;9089;58.396;15.544;2023-04-01T16:18:07;0.80;;;0.80;;
17927;SDS011;9089;58.396;15.544;2023-04-01T16:20:43;0.77;;;0.75;;
17927;SDS011;9089;58.396;15.544;2023-04-01T16:23:12;2.58;;;0.70;;
17927;SDS011;9089;58.396;15.544;2023-04-01T16:25:39;1.35;;;0.88;;
17927;SDS011;9089;58.396;15.544;2023-04-01T16:28:14;2.08;;;0.77;;
17927;SDS011;9089;58.396;15.544;2023-04-01T16:30:43;1.40;;;0.60;;